Time;durP1;ratioP1;P1;durP2;ratioP2;P2;SDS_P1;SDS_P2;PMS_P1;PMS_P2;Temp;Humidity;BMP_temperature;BMP_pressure;BME280_temperature;BME280_humidity;BME280_pressure;Samples;Min_cycle;Max_cycle;Signal;HPM_P1;HPM_P2
2022/04/13 00:01:58;;;;;;;2.70;1.83;;;;;;;4.22;71.09;95232.16;5066450;28;20059;-45
2022/04/13 00:04:26;;;;;;;2.97;1.67;;;;;;;4.19;71.28;95231.72;5060400;28;20041;-43
2022/04/13 00:06:52;;;;;;;3.42;2.05;;;;;;;4.22;71.11;95231.38;5063862;28;20040;-44
2022/04/13 00:09:19;;;;;;;3.03;1.75;;;;;;;4.28;70.74;95240.94;5063533;28;20117;-45
2022/04/13 00:11:46;;;;;;;5.10;2.22;;;;;;;4.26;70.52;95242.91;5063725;28;20049;-44
2022/04/13 00:14:13;;;;;;;10.65;2.30;;;;;;;4.22;71.11;95237.31;5063989;28;20571;-45
2022/04/13 00:16:42;;;;;;;4.55;1.98;;;;;;;4.06;71.21;95221.28;5062433;28;20048;-45
2022/04/13 00:19:08;;;;;;;6.32;2.30;;;;;;;4.24;70.90;95231.97;5062387;28;20044;-45
2022/04/13 00:21:35;;;;;;;5.20;2.55;;;;;;;4.21;70.68;95232.34;5063719;28;20492;-43
2022/04/13 00:24:02;;;;;;;5.10;2.67;;;;;;;4.14;71.02;95231.47;5062272;28;20044;-44
2022/04/13 00:26:29;;;;;;;3.63;2.25;;;;;;;4.14;70.93;95228.88;5063100;28;20106;-45
2022/04/13 00:28:56;;;;;;;4.38;2.55;;;;;;;4.13;70.94;95217.78;5063497;28;20149;-44
2022/04/13 00:31:22;;;;;;;2.88;2.17;;;;;;;4.10;70.98;95227.66;5064794;28;20036;-44
2022/04/13 00:33:49;;;;;;;4.93;2.25;;;;;;;4.10;71.05;95222.50;5065253;28;20047;-45
2022/04/13 00:36:16;;;;;;;3.42;2.15;;;;;;;4.12;70.86;95220.53;5063387;28;21637;-44
2022/04/13 00:38:43;;;;;;;4.25;2.53;;;;;;;4.08;71.12;95219.31;5062465;28;20063;-44
2022/04/13 00:41:09;;;;;;;5.43;2.60;;;;;;;4.02;71.17;95226.78;5062168;28;20045;-44
2022/04/13 00:43:36;;;;;;;3.90;2.00;;;;;;;4.00;71.17;95218.44;5063549;28;20106;-43
2022/04/13 00:46:03;;;;;;;4.22;2.60;;;;;;;4.00;71.28;95210.69;5067003;28;20040;-44
2022/04/13 00:48:36;;;;;;;3.45;2.17;;;;;;;4.01;71.78;95224.38;5064687;28;20567;-45
2022/04/13 00:51:04;;;;;;;4.85;2.83;;;;;;;3.95;71.70;95220.75;5067402;28;20106;-44
2022/04/13 00:53:31;;;;;;;3.10;2.60;;;;;;;3.98;71.10;95220.38;5064839;28;20438;-45
2022/04/13 00:55:59;;;;;;;3.92;2.53;;;;;;;3.91;71.37;95234.97;5066245;28;20048;-45
2022/04/13 00:58:33;;;;;;;6.63;2.25;;;;;;;3.91;71.42;95224.66;5062665;28;20037;-43
2022/04/13 01:01:03;;;;;;;5.38;2.45;;;;;;;3.92;71.38;95231.41;5062221;28;20052;-46
2022/04/13 01:03:30;;;;;;;4.00;2.47;;;;;;;3.92;70.85;95236.56;5063375;28;20049;-44
2022/04/13 01:05:58;;;;;;;3.60;2.28;;;;;;;3.89;70.80;95236.94;5065263;28;20048;-47
2022/04/13 01:08:27;;;;;;;4.30;1.88;;;;;;;3.83;71.37;95232.47;5063005;28;20044;-44
2022/04/13 01:10:58;;;;;;;7.88;3.00;;;;;;;3.87;71.19;95232.91;5063165;28;20052;-45
2022/04/13 01:13:25;;;;;;;5.78;2.80;;;;;;;3.81;71.54;95224.13;5062995;28;20086;-46
2022/04/13 01:15:51;;;;;;;3.13;2.13;;;;;;;3.84;71.65;95228.94;5063256;28;20040;-47
2022/04/13 01:18:19;;;;;;;4.05;2.13;;;;;;;3.83;71.71;95222.16;5061708;28;20133;-45
2022/04/13 01:20:56;;;;;;;5.20;2.42;;;;;;;3.86;71.13;95232.13;5062326;28;20507;-45
2022/04/13 01:23:24;;;;;;;4.30;3.17;;;;;;;3.81;71.24;95227.50;5062429;28;20045;-44
2022/04/13 01:25:53;;;;;;;3.75;2.15;;;;;;;3.81;71.30;95224.13;5064201;28;20113;-46
2022/04/13 01:28:20;;;;;;;3.83;2.53;;;;;;;3.66;71.31;95215.63;5063691;28;20490;-44
2022/04/13 01:30:51;;;;;;;4.82;2.60;;;;;;;3.75;71.19;95235.16;5062565;28;20048;-46
2022/04/13 01:33:18;;;;;;;6.07;2.83;;;;;;;3.68;71.80;95229.13;5062451;28;20102;-44
2022/04/13 01:35:45;;;;;;;6.68;2.63;;;;;;;3.67;71.92;95222.34;5062579;28;20040;-45
2022/04/13 01:38:12;;;;;;;4.18;2.25;;;;;;;3.73;71.58;95226.81;5062236;28;20053;-44
2022/04/13 01:40:39;;;;;;;4.95;3.15;;;;;;;3.75;72.06;95219.69;5061912;28;20064;-47
2022/04/13 01:43:06;;;;;;;6.32;4.35;;;;;;;3.42;75.81;95225.19;5064166;28;20458;-46
2022/04/13 01:45:32;;;;;;;11.52;5.55;;;;;;;3.22;77.73;95219.75;5062632;28;20040;-46
2022/04/13 01:47:59;;;;;;;11.18;6.38;;;;;;;3.05;79.16;95229.41;5065241;28;20052;-44
2022/04/13 01:50:26;;;;;;;16.08;7.05;;;;;;;3.06;79.26;95226.66;5063421;28;20045;-44
2022/04/13 01:52:53;;;;;;;10.77;6.07;;;;;;;2.93;80.49;95225.63;5062340;28;20051;-44
2022/04/13 01:55:20;;;;;;;18.00;6.40;;;;;;;2.76;81.64;95225.75;5062404;28;20048;-44
2022/04/13 01:57:47;;;;;;;14.73;7.80;;;;;;;2.57;84.38;95218.50;5062339;28;20463;-47
2022/04/13 02:00:14;;;;;;;16.45;7.40;;;;;;;2.53;84.79;95218.03;5062490;28;20048;-47
2022/04/13 02:02:40;;;;;;;14.52;6.93;;;;;;;2.30;87.44;95220.59;5061238;28;20053;-43
2022/04/13 02:05:08;;;;;;;12.25;6.80;;;;;;;2.20;87.63;95209.75;5062110;28;20118;-44
2022/04/13 02:07:35;;;;;;;13.55;7.57;;;;;;;2.10;90.08;95215.88;5064799;28;20040;-43
2022/04/13 02:10:02;;;;;;;10.30;6.45;;;;;;;2.19;90.68;95219.22;5062524;28;20052;-44
2022/04/13 02:12:29;;;;;;;16.95;10.57;;;;;;;2.08;92.02;95222.94;5062223;28;20041;-45
2022/04/13 02:14:56;;;;;;;13.48;8.93;;;;;;;2.04;92.55;95226.03;5062293;28;20060;-43
2022/04/13 02:17:23;;;;;;;12.60;7.03;;;;;;;2.00;92.71;95220.44;5063649;28;20122;-43
2022/04/13 02:19:49;;;;;;;14.77;6.53;;;;;;;1.92;92.83;95217.91;5065318;28;21280;-43
2022/04/13 02:22:16;;;;;;;15.63;7.03;;;;;;;1.87;93.55;95220.97;5065365;28;20036;-44
2022/04/13 02:25:05;;;;;;;12.38;6.70;;;;;;;1.84;93.78;95225.66;5065356;28;20082;-42
2022/04/13 02:27:32;;;;;;;23.35;10.05;;;;;;;1.76;93.77;95223.09;5065478;28;20048;-43
2022/04/13 02:29:58;;;;;;;24.98;9.88;;;;;;;1.75;93.95;95221.50;5065618;28;20479;-42
2022/04/13 02:32:26;;;;;;;29.77;9.55;;;;;;;1.70;93.74;95225.38;5065482;28;20413;-42
2022/04/13 02:34:53;;;;;;;24.67;8.07;;;;;;;1.74;93.35;95219.91;5065809;28;20040;-44
2022/04/13 02:37:20;;;;;;;18.05;7.13;;;;;;;1.74;92.82;95217.34;5065630;28;20570;-43
2022/04/13 02:39:46;;;;;;;18.95;7.93;;;;;;;1.71;92.63;95214.13;5064398;28;20032;-43
2022/04/13 02:42:14;;;;;;;18.92;9.43;;;;;;;1.69;92.89;95213.50;5065268;28;20106;-44
2022/04/13 02:44:42;;;;;;;14.35;7.78;;;;;;;1.61;92.76;95213.53;5065382;28;20039;-43
2022/04/13 02:47:09;;;;;;;9.27;6.22;;;;;;;1.54;92.36;95215.16;5065414;28;20036;-44
2022/04/13 02:49:37;;;;;;;13.25;6.43;;;;;;;1.45;93.15;95211.00;5064782;28;20044;-41
2022/04/13 02:52:05;;;;;;;12.95;6.82;;;;;;;1.30;93.97;95208.31;5066823;28;20130;-43
2022/04/13 02:54:32;;;;;;;14.65;6.30;;;;;;;1.27;93.79;95214.56;5069121;28;20041;-42
2022/04/13 02:56:59;;;;;;;13.43;7.22;;;;;;;1.17;94.50;95216.53;5065174;28;20501;-43
2022/04/13 02:59:25;;;;;;;14.30;6.00;;;;;;;1.03;94.93;95222.31;5066627;28;20086;-46
2022/04/13 03:01:53;;;;;;;14.00;6.43;;;;;;;0.91;95.28;95220.06;5065166;28;20049;-42
2022/04/13 03:04:26;;;;;;;15.27;6.50;;;;;;;0.90;96.07;95228.72;5065102;28;20041;-42
2022/04/13 03:06:54;;;;;;;9.32;6.32;;;;;;;0.92;96.28;95221.69;5064654;28;20059;-43
2022/04/13 03:09:20;;;;;;;11.38;5.43;;;;;;;0.86;96.72;95231.75;5064433;28;20040;-41
2022/04/13 03:11:47;;;;;;;12.68;7.15;;;;;;;0.82;97.07;95226.16;5065059;28;20056;-42
2022/04/13 03:14:14;;;;;;;11.40;6.90;;;;;;;0.79;97.43;95221.34;5064173;28;20506;-42
2022/04/13 03:16:41;;;;;;;11.30;6.22;;;;;;;0.84;97.80;95234.47;5063320;28;20037;-43
2022/04/13 03:19:07;;;;;;;10.98;6.63;;;;;;;0.76;98.02;95237.06;5065274;28;20063;-44
2022/04/13 03:21:34;;;;;;;15.10;7.70;;;;;;;0.79;97.62;95241.84;5065685;28;20056;-43
2022/04/13 03:24:01;;;;;;;13.15;5.53;;;;;;;0.74;97.41;95233.88;5068275;28;20525;-42
2022/04/13 03:26:28;;;;;;;15.00;6.63;;;;;;;0.72;97.27;95240.88;5068756;28;20047;-42
2022/04/13 03:28:55;;;;;;;14.27;6.15;;;;;;;0.71;97.87;95239.31;5066124;28;20051;-44
2022/04/13 03:31:22;;;;;;;10.88;5.80;;;;;;;0.71;97.56;95234.19;5063832;28;20135;-42
2022/04/13 03:33:49;;;;;;;8.68;5.78;;;;;;;0.73;97.74;95234.81;5064446;28;20054;-42
2022/04/13 03:36:17;;;;;;;10.80;6.40;;;;;;;0.70;97.59;95232.56;5063809;28;20037;-43
2022/04/13 03:38:44;;;;;;;10.68;6.75;;;;;;;0.70;97.83;95242.81;5062875;28;20064;-43
2022/04/13 03:41:11;;;;;;;16.75;6.88;;;;;;;0.71;98.01;95249.56;5055747;28;20049;-41
2022/04/13 03:43:37;;;;;;;17.85;8.35;;;;;;;0.67;98.72;95243.94;5064880;28;20048;-42
2022/04/13 03:46:04;;;;;;;20.60;9.57;;;;;;;0.68;98.74;95255.00;5062071;28;20506;-47
2022/04/13 03:48:36;;;;;;;18.40;9.55;;;;;;;0.60;98.75;95257.56;5063972;28;20036;-46
2022/04/13 03:51:03;;;;;;;13.75;6.35;;;;;;;0.49;99.07;95262.03;5066401;28;20048;-45
2022/04/13 03:53:30;;;;;;;13.75;7.57;;;;;;;0.51;99.41;95259.31;5065022;28;20044;-44
2022/04/13 03:55:57;;;;;;;12.50;7.60;;;;;;;0.55;98.98;95263.16;5065002;28;20036;-42
2022/04/13 03:58:24;;;;;;;15.15;6.68;;;;;;;0.50;99.47;95266.19;5063347;28;20395;-43
2022/04/13 04:00:51;;;;;;;13.57;6.40;;;;;;;0.46;99.46;95266.66;5064287;28;20481;-44
2022/04/13 04:03:18;;;;;;;11.07;6.88;;;;;;;0.51;100.00;95270.34;5068975;28;20130;-41
2022/04/13 04:05:45;;;;;;;11.95;5.45;;;;;;;0.54;99.98;95270.03;5065268;28;20044;-42
2022/04/13 04:08:12;;;;;;;16.73;6.00;;;;;;;0.57;99.58;95269.72;5066740;28;20056;-47
2022/04/13 04:10:38;;;;;;;15.82;5.93;;;;;;;0.52;99.46;95271.97;5062450;28;20060;-44
2022/04/13 04:13:05;;;;;;;10.70;6.55;;;;;;;0.54;99.83;95275.19;5063162;28;20048;-41
2022/04/13 04:15:32;;;;;;;14.65;5.90;;;;;;;0.64;99.80;95276.78;5064122;28;20406;-46
2022/04/13 04:17:59;;;;;;;15.18;6.57;;;;;;;0.70;99.64;95278.72;5065752;28;20731;-44
2022/04/13 04:20:25;;;;;;;13.07;6.72;;;;;;;0.75;99.56;95277.28;5064093;28;20041;-45
2022/04/13 04:22:52;;;;;;;14.20;7.07;;;;;;;0.80;99.51;95284.50;5065209;28;20052;-40
2022/04/13 04:25:19;;;;;;;12.25;7.07;;;;;;;0.84;99.55;95288.34;5063928;28;20048;-43
2022/04/13 04:27:46;;;;;;;15.52;6.97;;;;;;;0.92;99.54;95293.50;5065663;28;20539;-45
2022/04/13 04:30:13;;;;;;;14.80;6.97;;;;;;;1.05;98.45;95294.78;5065994;28;20063;-44
2022/04/13 04:32:40;;;;;;;17.67;7.18;;;;;;;1.10;98.12;95297.66;5064949;28;20035;-47
2022/04/13 04:35:08;;;;;;;22.77;12.23;;;;;;;1.13;98.50;95297.34;5064344;28;20044;-46
2022/04/13 04:37:35;;;;;;;25.58;12.65;;;;;;;1.22;98.65;95304.06;5064884;28;20472;-46
2022/04/13 04:40:02;;;;;;;21.52;11.20;;;;;;;1.33;98.81;95300.38;5062193;28;20844;-45
2022/04/13 04:42:29;;;;;;;29.70;12.95;;;;;;;1.45;98.33;95305.97;5063699;28;20040;-44
2022/04/13 04:44:59;;;;;;;57.08;25.38;;;;;;;1.49;98.50;95299.56;5064050;28;20048;-43
2022/04/13 04:47:26;;;;;;;89.03;41.83;;;;;;;1.69;97.91;95321.34;5064303;28;20531;-44
2022/04/13 04:49:53;;;;;;;40.78;21.63;;;;;;;1.79;96.99;95315.25;5065488;28;20044;-41
2022/04/13 04:52:20;;;;;;;26.23;15.57;;;;;;;1.85;96.29;95309.44;5062762;28;20043;-41
2022/04/13 04:54:47;;;;;;;22.77;11.70;;;;;;;1.96;95.07;95316.78;5065773;28;20044;-45
2022/04/13 04:57:13;;;;;;;25.42;11.90;;;;;;;1.98;94.17;95320.00;5064308;28;20516;-44
2022/04/13 04:59:40;;;;;;;19.52;11.23;;;;;;;2.05;93.62;95320.94;5063847;28;20506;-47
2022/04/13 05:02:07;;;;;;;48.25;17.52;;;;;;;2.10;92.86;95323.81;5064013;28;20060;-45
2022/04/13 05:04:34;;;;;;;62.95;24.48;;;;;;;2.16;92.72;95329.25;5063902;28;20048;-43
2022/04/13 05:07:00;;;;;;;38.78;19.13;;;;;;;2.24;92.42;95334.38;5063809;28;20082;-44
2022/04/13 05:09:28;;;;;;;72.55;33.15;;;;;;;2.25;92.77;95330.81;5064049;28;20052;-44
2022/04/13 05:12:01;;;;;;;30.95;15.15;;;;;;;2.37;93.29;95339.78;5063611;28;20098;-42
2022/04/13 05:14:29;;;;;;;20.42;10.73;;;;;;;2.42;93.14;95337.50;5063833;28;20048;-43
2022/04/13 05:16:56;;;;;;;20.23;11.10;;;;;;;2.43;93.78;95338.28;5063762;28;20032;-44
2022/04/13 05:19:22;;;;;;;21.52;10.75;;;;;;;2.55;93.45;95336.16;5064071;28;20041;-42
2022/04/13 05:21:49;;;;;;;18.17;10.35;;;;;;;2.60;93.25;95328.75;5060464;28;20105;-41
2022/04/13 05:24:16;;;;;;;21.17;9.32;;;;;;;2.62;92.74;95337.09;5062286;28;20042;-43
2022/04/13 05:26:43;;;;;;;38.20;16.52;;;;;;;2.61;92.84;95345.75;5062496;28;20060;-42
2022/04/13 05:29:09;;;;;;;28.23;17.58;;;;;;;2.68;93.78;95341.56;5063118;28;20040;-43
2022/04/13 05:31:36;;;;;;;31.52;15.95;;;;;;;2.76;93.72;95351.81;5062657;28;20119;-44
2022/04/13 05:34:03;;;;;;;26.50;14.07;;;;;;;2.89;93.96;95350.47;5062774;28;20445;-42
2022/04/13 05:36:30;;;;;;;24.48;13.07;;;;;;;2.95;93.59;95363.41;5063574;28;20090;-45
2022/04/13 05:38:56;;;;;;;25.60;11.07;;;;;;;3.00;93.37;95360.34;5062571;28;20075;-42
2022/04/13 05:41:23;;;;;;;22.73;10.50;;;;;;;3.12;93.02;95366.72;5062112;28;20120;-43
2022/04/13 05:43:50;;;;;;;23.73;12.60;;;;;;;3.29;92.90;95358.88;5063643;28;20041;-42
2022/04/13 05:46:17;;;;;;;17.55;10.25;;;;;;;3.42;93.04;95364.22;5063822;28;20036;-44
2022/04/13 05:48:43;;;;;;;18.42;10.65;;;;;;;3.58;92.18;95364.13;5062324;28;20052;-48
2022/04/13 05:51:10;;;;;;;14.77;9.20;;;;;;;3.70;90.72;95367.06;5062358;28;20121;-43
2022/04/13 05:53:37;;;;;;;17.27;9.15;;;;;;;3.60;90.43;95372.47;5065643;28;20048;-45
2022/04/13 05:56:05;;;;;;;15.80;9.55;;;;;;;3.80;90.21;95372.00;5064427;28;20045;-44
2022/04/13 05:58:32;;;;;;;20.85;9.52;;;;;;;3.96;89.81;95377.00;5065584;28;20519;-43
2022/04/13 06:00:58;;;;;;;20.35;8.55;;;;;;;4.09;88.92;95375.56;5066602;28;20094;-43
2022/04/13 06:03:25;;;;;;;15.80;9.65;;;;;;;4.25;87.08;95374.59;5067035;28;20049;-43
2022/04/13 06:06:09;;;;;;;16.90;9.57;;;;;;;4.39;85.62;95377.19;5066954;28;20051;-45
2022/04/13 06:08:36;;;;;;;12.02;8.32;;;;;;;4.55;83.23;95375.38;5067217;28;20079;-47
2022/04/13 06:11:03;;;;;;;17.33;7.57;;;;;;;4.70;82.41;95373.59;5066918;28;20488;-43
2022/04/13 06:13:31;;;;;;;17.75;8.25;;;;;;;4.85;81.82;95380.50;5067625;28;20436;-42
2022/04/13 06:15:58;;;;;;;13.60;6.72;;;;;;;4.96;80.77;95380.03;5066560;28;20048;-42
2022/04/13 06:18:25;;;;;;;12.23;7.60;;;;;;;4.91;79.06;95344.44;5066031;28;20044;-42
2022/04/13 06:20:52;;;;;;;17.95;9.43;;;;;;;5.24;79.65;95384.47;5066066;28;20062;-42
2022/04/13 06:23:18;;;;;;;12.18;8.27;;;;;;;5.38;78.45;95386.22;5065555;28;20077;-44
2022/04/13 06:25:45;;;;;;;19.00;8.27;;;;;;;5.34;76.27;95390.16;5065146;28;20052;-42
2022/04/13 06:28:12;;;;;;;14.82;7.85;;;;;;;5.30;77.93;95378.59;5064827;28;20044;-44
2022/04/13 06:30:39;;;;;;;12.98;8.05;;;;;;;5.47;77.18;95374.75;5066383;28;20121;-41
2022/04/13 06:33:06;;;;;;;15.10;7.93;;;;;;;5.59;75.60;95382.03;5066066;28;20522;-43
2022/04/13 06:35:34;;;;;;;12.18;8.18;;;;;;;5.76;75.81;95378.19;5066308;28;20087;-43
2022/04/13 06:38:00;;;;;;;11.38;7.53;;;;;;;5.99;75.46;95387.53;5065861;28;20036;-42
2022/04/13 06:40:27;;;;;;;14.07;7.57;;;;;;;6.17;71.96;95385.28;5062532;28;20044;-47
2022/04/13 06:42:55;;;;;;;10.13;6.70;;;;;;;6.38;69.72;95386.22;5060028;28;20775;-46
2022/04/13 06:45:23;;;;;;;12.23;6.72;;;;;;;6.49;68.55;95383.06;5062283;28;21050;-44
2022/04/13 06:47:50;;;;;;;13.30;6.65;;;;;;;6.66;68.49;95379.19;5064446;28;20071;-48
2022/04/13 06:50:17;;;;;;;14.38;6.72;;;;;;;6.70;67.33;95375.22;5064412;28;20090;-43
2022/04/13 06:52:44;;;;;;;8.00;5.72;;;;;;;6.73;65.15;95378.41;5063877;28;20048;-45
2022/04/13 06:55:11;;;;;;;11.63;6.13;;;;;;;6.81;64.42;95370.47;5063586;28;20490;-45
2022/04/13 06:57:39;;;;;;;7.70;5.32;;;;;;;6.89;64.04;95372.88;5064493;28;20036;-47
2022/04/13 07:00:09;;;;;;;10.05;6.53;;;;;;;7.06;64.20;95374.13;5064367;28;20113;-45
2022/04/13 07:02:36;;;;;;;12.93;6.25;;;;;;;7.25;63.79;95369.19;5062454;28;20582;-45
2022/04/13 07:05:24;;;;;;;18.45;6.72;;;;;;;7.38;63.09;95371.81;5060942;28;20041;-46
2022/04/13 07:07:51;;;;;;;18.13;6.38;;;;;;;7.46;63.34;95374.22;5062584;28;22083;-44
2022/04/13 07:10:18;;;;;;;9.10;5.75;;;;;;;7.61;61.77;95366.25;5064030;28;20048;-45
2022/04/13 07:12:44;;;;;;;17.42;8.20;;;;;;;7.82;63.16;95377.44;5064356;28;20094;-45
2022/04/13 07:15:12;;;;;;;15.25;6.30;;;;;;;8.13;62.50;95373.41;5063227;28;20071;-44
2022/04/13 07:17:39;;;;;;;15.38;6.80;;;;;;;8.15;60.01;95371.41;5064403;28;20490;-47
2022/04/13 07:20:06;;;;;;;18.55;6.47;;;;;;;8.26;59.91;95372.59;5063674;28;20634;-44
2022/04/13 07:22:32;;;;;;;9.38;5.65;;;;;;;8.44;59.81;95367.56;5062535;28;20040;-43
2022/04/13 07:24:59;;;;;;;9.18;5.72;;;;;;;8.41;58.11;95365.38;5062641;28;20080;-47
2022/04/13 07:27:26;;;;;;;9.40;5.40;;;;;;;8.49;58.39;95367.78;5063202;28;20036;-44
2022/04/13 07:29:53;;;;;;;13.30;5.95;;;;;;;8.64;59.26;95364.91;5064569;28;20464;-43
2022/04/13 07:32:19;;;;;;;7.63;4.72;;;;;;;8.84;58.48;95370.06;5064357;28;20040;-44
2022/04/13 07:34:46;;;;;;;9.25;5.82;;;;;;;8.94;56.17;95375.59;5063687;28;20078;-45
2022/04/13 07:37:13;;;;;;;30.65;19.10;;;;;;;9.17;57.09;95374.31;5064605;28;20048;-45
2022/04/13 07:39:39;;;;;;;8.65;4.38;;;;;;;9.46;54.40;95385.91;5064255;28;20057;-45
2022/04/13 07:42:06;;;;;;;8.57;5.30;;;;;;;9.72;53.64;95386.75;5062934;28;20052;-44
2022/04/13 07:44:33;;;;;;;11.65;5.63;;;;;;;9.92;52.43;95386.59;5063923;28;20513;-48
2022/04/13 07:47:21;;;;;;;18.77;11.52;;;;;;;10.20;52.13;95382.75;5063817;28;20157;-44
2022/04/13 07:49:48;;;;;;;10.93;7.13;;;;;;;10.49;52.32;95384.69;5064203;28;20058;-45
2022/04/13 07:52:16;;;;;;;23.10;10.98;;;;;;;10.51;50.67;95380.09;5063823;28;20049;-47
2022/04/13 07:54:44;;;;;;;14.45;5.75;;;;;;;10.58;50.93;95379.19;5063359;28;20099;-44
2022/04/13 07:57:12;;;;;;;7.18;4.72;;;;;;;10.82;51.34;95375.72;5063019;28;20040;-49
2022/04/13 07:59:40;;;;;;;6.68;4.45;;;;;;;10.96;50.10;95370.34;5064043;28;20079;-45
2022/04/13 08:02:08;;;;;;;10.13;5.80;;;;;;;11.19;51.31;95375.66;5063384;28;20056;-45
2022/04/13 08:04:35;;;;;;;13.45;4.80;;;;;;;11.45;50.03;95378.91;5062899;28;20048;-46
2022/04/13 08:07:03;;;;;;;8.75;4.93;;;;;;;11.67;49.77;95377.41;5063301;28;20053;-48
2022/04/13 08:09:30;;;;;;;7.15;4.43;;;;;;;11.82;47.69;95368.34;5063912;28;20445;-47
2022/04/13 08:11:57;;;;;;;6.68;4.10;;;;;;;11.63;44.85;95373.66;5063583;28;20048;-50
2022/04/13 08:14:24;;;;;;;8.60;3.83;;;;;;;11.33;44.27;95367.66;5062590;28;20056;-50
2022/04/13 08:16:51;;;;;;;7.68;4.03;;;;;;;11.32;45.36;95366.06;5063823;28;20048;-45
2022/04/13 08:19:18;;;;;;;9.52;3.78;;;;;;;11.39;44.35;95369.38;5063650;28;20076;-46
2022/04/13 08:21:45;;;;;;;6.53;3.17;;;;;;;11.51;43.13;95366.81;5063174;28;20056;-44
2022/04/13 08:24:13;;;;;;;9.82;4.57;;;;;;;11.47;43.93;95371.69;5062596;28;20445;-46
2022/04/13 08:26:40;;;;;;;8.10;3.83;;;;;;;11.53;43.62;95381.22;5061079;28;20684;-44
2022/04/13 08:29:07;;;;;;;8.63;4.10;;;;;;;11.68;44.09;95372.97;5061944;28;20048;-44
2022/04/13 08:31:33;;;;;;;8.93;4.18;;;;;;;11.72;43.72;95368.91;5063487;28;20076;-45
2022/04/13 08:34:00;;;;;;;7.55;4.78;;;;;;;11.83;42.98;95369.94;5063084;28;20117;-48
2022/04/13 08:36:27;;;;;;;9.10;4.53;;;;;;;11.80;42.78;95370.38;5063480;28;20571;-46
2022/04/13 08:38:54;;;;;;;8.90;5.10;;;;;;;11.97;42.52;95366.09;5063766;28;20041;-43
2022/04/13 08:41:50;;;;;;;8.30;4.28;;;;;;;12.02;42.20;95371.44;5062350;28;20051;-44
2022/04/13 08:44:22;;;;;;;9.05;4.72;;;;;;;12.13;42.83;95363.84;5063254;28;20053;-46
2022/04/13 08:46:55;;;;;;;7.20;4.50;;;;;;;12.37;42.05;95344.53;5063084;28;20135;-44
2022/04/13 08:49:23;;;;;;;5.72;3.72;;;;;;;12.58;41.55;95355.41;5064166;28;20072;-47
2022/04/13 08:52:02;;;;;;;11.23;3.75;;;;;;;12.62;40.94;95351.31;5064482;28;20052;-48
2022/04/13 08:54:31;;;;;;;6.93;4.18;;;;;;;13.06;41.22;95356.88;5064408;28;20044;-45
2022/04/13 08:56:58;;;;;;;7.82;3.28;;;;;;;13.28;41.33;95354.38;5063930;28;20036;-48
2022/04/13 09:00:06;;;;;;;7.82;3.20;;;;;;;13.34;39.40;95357.91;5063713;28;20136;-47
2022/04/13 09:02:59;;;;;;;6.88;4.15;;;;;;;13.45;38.28;95349.22;5063736;28;20052;-46
2022/04/13 09:05:31;;;;;;;14.23;4.43;;;;;;;13.49;37.46;95346.94;5034749;28;20582;-44
2022/04/13 09:08:08;;;;;;;4.30;2.67;;;;;;;13.55;36.58;95341.53;5064045;28;20056;-49
2022/04/13 09:10:36;;;;;;;9.80;3.55;;;;;;;13.64;35.96;95352.41;5063634;28;20051;-45
2022/04/13 09:13:07;;;;;;;4.22;2.65;;;;;;;13.72;36.06;95343.38;5064271;28;20059;-44
2022/04/13 09:15:36;;;;;;;6.25;3.35;;;;;;;13.70;35.95;95335.78;5063467;28;20049;-45
2022/04/13 09:18:03;;;;;;;6.82;2.72;;;;;;;13.67;37.01;95335.44;5063470;28;20282;-45
2022/04/13 09:20:30;;;;;;;8.48;2.78;;;;;;;13.99;36.64;95332.25;5064042;28;20402;-44
2022/04/13 09:22:59;;;;;;;6.18;3.00;;;;;;;14.00;34.97;95344.31;5064203;28;20066;-45
2022/04/13 09:25:29;;;;;;;4.03;2.60;;;;;;;14.11;36.40;95336.38;5064147;28;20509;-44
2022/04/13 09:27:57;;;;;;;3.03;2.17;;;;;;;14.26;35.75;95341.03;5067068;28;20044;-46
2022/04/13 09:30:25;;;;;;;6.88;2.75;;;;;;;14.19;34.58;95329.94;5067274;28;20048;-45
2022/04/13 09:32:52;;;;;;;3.95;1.85;;;;;;;14.27;33.05;95328.72;5068023;28;20051;-47
2022/04/13 09:35:20;;;;;;;6.10;2.70;;;;;;;14.29;34.08;95327.44;5067497;28;20044;-45
2022/04/13 09:37:47;;;;;;;6.18;2.92;;;;;;;14.42;34.47;95325.50;5068255;28;20049;-47
2022/04/13 09:40:31;;;;;;;5.38;3.33;;;;;;;14.56;34.01;95316.25;5067086;28;20485;-44
2022/04/13 09:43:10;;;;;;;3.83;2.28;;;;;;;14.79;33.84;95314.47;5066119;28;20044;-44
2022/04/13 09:45:44;;;;;;;4.90;2.83;;;;;;;15.09;34.15;95314.78;5066918;28;20375;-44
2022/04/13 09:48:14;;;;;;;7.13;3.88;;;;;;;15.45;32.85;95312.50;5068558;28;20505;-44
2022/04/13 09:50:43;;;;;;;5.57;3.00;;;;;;;15.52;32.38;95312.31;5065968;28;20524;-46
2022/04/13 09:53:12;;;;;;;3.88;2.42;;;;;;;15.84;32.57;95312.28;5066402;28;20494;-47
2022/04/13 09:55:40;;;;;;;3.72;2.30;;;;;;;16.13;31.57;95305.91;5066166;28;20052;-46
2022/04/13 09:58:12;;;;;;;4.47;2.40;;;;;;;15.60;31.64;95303.16;5064858;28;20036;-46
2022/04/13 10:00:41;;;;;;;4.50;2.50;;;;;;;15.44;32.24;95297.78;5067380;28;20048;-49
2022/04/13 10:03:17;;;;;;;4.28;2.47;;;;;;;15.38;32.83;95301.41;5066099;28;20063;-45
2022/04/13 10:05:52;;;;;;;10.40;2.65;;;;;;;15.38;31.91;95296.16;5064487;28;20076;-44
2022/04/13 10:08:24;;;;;;;4.20;2.40;;;;;;;15.38;31.92;95290.91;5065349;28;20406;-47
2022/04/13 10:10:56;;;;;;;4.43;1.80;;;;;;;15.47;32.15;95294.66;5065714;28;20082;-45
2022/04/13 10:13:36;;;;;;;4.45;2.28;;;;;;;15.56;31.36;95296.84;5065931;28;20044;-45
2022/04/13 10:16:08;;;;;;;4.25;2.25;;;;;;;15.92;32.11;95294.47;5065732;28;20056;-44
2022/04/13 10:18:53;;;;;;;12.63;2.00;;;;;;;15.76;30.90;95281.25;5065726;28;20036;-45
2022/04/13 10:21:36;;;;;;;4.00;2.05;;;;;;;16.35;32.34;95287.38;5065837;28;20142;-44
2022/04/13 10:24:05;;;;;;;3.28;2.20;;;;;;;16.68;30.41;95290.69;5065525;28;20117;-43
2022/04/13 10:26:32;;;;;;;6.15;2.25;;;;;;;16.52;29.97;95287.97;5065801;28;20052;-46
2022/04/13 10:28:58;;;;;;;3.85;2.60;;;;;;;15.51;30.87;95288.94;5065469;28;20445;-45
2022/04/13 10:31:25;;;;;;;3.20;2.13;;;;;;;15.51;30.86;95283.69;5064852;28;20051;-45
2022/04/13 10:33:52;;;;;;;3.83;2.47;;;;;;;15.79;31.61;95282.56;5065518;28;21037;-44
2022/04/13 10:36:20;;;;;;;8.75;2.25;;;;;;;16.30;31.34;95276.84;5065188;28;20430;-46
2022/04/13 10:38:47;;;;;;;6.15;2.85;;;;;;;16.91;31.06;95279.72;5065168;28;20433;-47
2022/04/13 10:41:20;;;;;;;7.45;2.95;;;;;;;17.50;29.60;95280.31;5064612;28;20040;-45
2022/04/13 10:43:49;;;;;;;3.97;2.15;;;;;;;17.34;28.66;95277.69;5061743;28;20040;-45
2022/04/13 10:46:21;;;;;;;3.97;2.42;;;;;;;17.32;29.34;95279.00;5065278;28;20072;-46
2022/04/13 10:48:55;;;;;;;4.53;2.13;;;;;;;16.91;29.14;95278.94;5065867;28;20044;-44
2022/04/13 10:51:34;;;;;;;5.03;2.42;;;;;;;16.57;29.62;95266.97;5066662;28;20051;-46
2022/04/13 10:54:08;;;;;;;4.20;2.40;;;;;;;17.14;30.54;95261.88;5065873;28;20127;-46
2022/04/13 10:56:39;;;;;;;5.70;2.47;;;;;;;16.90;28.77;95257.09;5063852;28;20040;-49
2022/04/13 10:59:18;;;;;;;3.90;2.45;;;;;;;17.03;28.26;95271.59;5065142;28;20037;-49
2022/04/13 11:01:46;;;;;;;3.88;2.13;;;;;;;17.37;28.67;95266.63;5064800;28;20044;-46
2022/04/13 11:04:16;;;;;;;8.48;3.00;;;;;;;17.45;29.55;95267.16;5065037;28;20044;-49
2022/04/13 11:06:45;;;;;;;2.92;1.60;;;;;;;17.09;29.15;95264.50;5064292;28;20044;-52
2022/04/13 11:09:27;;;;;;;4.03;2.45;;;;;;;17.12;29.60;95258.72;5046841;28;20094;-54
2022/04/13 11:11:56;;;;;;;3.35;2.08;;;;;;;17.30;28.02;95255.56;5061908;28;20581;-54
2022/04/13 11:14:24;;;;;;;5.22;1.95;;;;;;;17.58;28.15;95250.84;5062628;28;20049;-54
2022/04/13 11:17:06;;;;;;;6.50;2.25;;;;;;;17.62;27.55;95251.88;5065500;28;20058;-52
2022/04/13 11:19:33;;;;;;;4.10;2.42;;;;;;;17.71;28.06;95249.50;5065684;28;20052;-52
2022/04/13 11:22:00;;;;;;;3.83;2.50;;;;;;;18.10;26.78;95252.38;5065427;28;20055;-54
2022/04/13 11:24:39;;;;;;;3.10;1.90;;;;;;;17.70;26.59;95248.72;5066544;28;20052;-54
2022/04/13 11:27:08;;;;;;;2.95;1.83;;;;;;;18.36;27.39;95244.38;5064386;28;20044;-53
2022/04/13 11:29:45;;;;;;;5.80;2.58;;;;;;;18.28;26.87;95255.47;5067368;28;20514;-53
2022/04/13 11:32:14;;;;;;;3.30;2.13;;;;;;;17.94;25.51;95253.47;5067599;28;20049;-49
2022/04/13 11:34:49;;;;;;;5.13;2.22;;;;;;;18.48;26.40;95236.94;5068880;28;20469;-53
2022/04/13 11:37:23;;;;;;;5.15;2.65;;;;;;;19.26;25.02;95232.81;5066551;28;20379;-54
2022/04/13 11:39:55;;;;;;;5.97;2.28;;;;;;;19.51;24.93;95241.59;5064238;28;20537;-54
2022/04/13 11:42:28;;;;;;;6.70;2.28;;;;;;;19.63;24.56;95239.38;5063520;28;20048;-53